createdAt,value
2023-08-12T00:01:43.335Z,24.50
2023-08-12T00:06:47.042Z,24.32
2023-08-12T00:11:51.887Z,24.03
2023-08-12T00:16:55.372Z,23.87
2023-08-12T00:21:58.871Z,24.17
2023-08-12T00:27:03.634Z,24.10
2023-08-12T00:32:07.226Z,24.00
2023-08-12T00:37:11.340Z,23.95
2023-08-12T00:42:16.535Z,23.70
2023-08-12T00:47:20.056Z,23.83
2023-08-12T00:52:23.435Z,23.54
2023-08-12T00:57:29.586Z,23.73
2023-08-12T01:02:33.660Z,23.56
2023-08-12T01:07:37.581Z,23.58
2023-08-12T01:12:46.930Z,23.61
2023-08-12T01:17:54.439Z,23.20
2023-08-12T01:22:59.557Z,23.42
2023-08-12T01:28:04.729Z,23.39
2023-08-12T01:33:17.137Z,23.37
2023-08-12T01:38:21.411Z,23.28
2023-08-12T01:43:27.215Z,23.27
2023-08-12T01:48:30.674Z,23.01
2023-08-12T01:53:34.135Z,23.15
2023-08-12T01:58:39.021Z,23.18
2023-08-12T02:03:42.587Z,22.97
2023-08-12T02:08:46.240Z,23.12
2023-08-12T02:13:51.040Z,22.61
2023-08-12T02:18:54.479Z,23.05
2023-08-12T02:23:58.817Z,23.03
2023-08-12T02:29:03.752Z,23.02
2023-08-12T02:34:12.160Z,22.93
2023-08-12T02:39:15.675Z,22.88
2023-08-12T02:44:20.637Z,22.49
2023-08-12T02:49:24.100Z,22.72
2023-08-12T02:54:27.654Z,22.72
2023-08-12T02:59:32.601Z,22.82
2023-08-12T03:04:36.234Z,22.45
2023-08-12T03:09:39.903Z,22.58
2023-08-12T03:14:45.552Z,22.76
2023-08-12T03:19:49.820Z,22.70
2023-08-12T03:24:53.309Z,22.68
2023-08-12T03:29:58.719Z,22.44
2023-08-12T03:35:03.414Z,22.54
2023-08-12T03:40:08.309Z,22.61
2023-08-12T03:45:15.390Z,22.29
2023-08-12T03:50:18.965Z,22.60
2023-08-12T03:55:22.502Z,22.60
2023-08-12T04:00:28.036Z,22.45
2023-08-12T04:05:35.068Z,22.54
2023-08-12T04:10:39.824Z,22.49
2023-08-12T04:15:44.692Z,22.09
2023-08-12T04:20:48.806Z,22.47
2023-08-12T04:25:54.889Z,22.48
2023-08-12T04:31:08.230Z,22.55
2023-08-12T04:36:12.477Z,22.01
2023-08-12T04:41:16.630Z,22.54
2023-08-12T04:46:22.178Z,22.59
2023-08-12T04:51:26.311Z,22.57
2023-08-12T04:56:30.442Z,22.26
2023-08-12T05:01:35.916Z,22.64
2023-08-12T05:06:39.443Z,22.63
2023-08-12T05:11:43.277Z,22.64
2023-08-12T05:16:48.718Z,22.17
2023-08-12T05:21:52.228Z,22.50
2023-08-12T05:26:57.273Z,22.72
2023-08-12T05:32:02.084Z,22.33
2023-08-12T05:37:05.825Z,22.70
2023-08-12T05:42:09.306Z,22.81
2023-08-12T05:47:14.162Z,22.69
2023-08-12T05:52:17.655Z,21.46
2023-08-12T05:57:21.079Z,22.87
2023-08-12T06:02:28.233Z,22.97
2023-08-12T06:07:31.756Z,22.85
2023-08-12T06:12:35.313Z,22.97
2023-08-12T06:17:40.205Z,23.04
2023-08-12T06:22:43.761Z,22.87
2023-08-12T06:27:48.252Z,23.06
2023-08-12T06:32:53.083Z,21.64
2023-08-12T06:37:56.461Z,23.16
2023-08-12T06:42:59.881Z,22.60
2023-08-12T06:48:05.116Z,23.35
2023-08-12T06:53:08.641Z,22.95
2023-08-12T06:58:12.142Z,23.34
2023-08-12T07:03:16.992Z,23.12
2023-08-12T07:08:20.618Z,23.41
2023-08-12T07:13:24.099Z,23.51
2023-08-12T07:18:30.029Z,23.86
2023-08-12T07:23:33.732Z,23.81
2023-08-12T07:28:37.300Z,22.77
2023-08-12T07:33:42.189Z,23.31
2023-08-12T07:38:45.693Z,23.96
2023-08-12T07:43:49.541Z,24.35
2023-08-12T07:48:54.440Z,24.30
2023-08-12T07:53:57.962Z,24.73
2023-08-12T07:59:01.396Z,24.69
2023-08-12T08:04:07.201Z,24.82
2023-08-12T08:09:10.707Z,25.02
2023-08-12T08:14:14.259Z,25.57
2023-08-12T08:19:19.781Z,25.79
2023-08-12T08:24:23.371Z,25.95
2023-08-12T08:29:26.830Z,26.13
2023-08-12T08:34:32.011Z,26.30
2023-08-12T08:39:35.753Z,26.03
2023-08-12T08:44:42.741Z,26.58
2023-08-12T08:49:48.616Z,26.76
2023-08-12T08:54:53.453Z,26.87
2023-08-12T08:59:58.649Z,26.78
2023-08-12T09:05:04.347Z,27.31
2023-08-12T09:10:09.766Z,26.10
2023-08-12T09:15:13.501Z,27.64
2023-08-12T09:20:18.506Z,27.39
2023-08-12T09:25:23.325Z,27.32
2023-08-12T09:30:30.525Z,28.38
2023-08-12T09:35:39.437Z,28.47
2023-08-12T09:40:43.275Z,28.26
2023-08-12T09:45:47.528Z,28.69
2023-08-12T09:50:54.446Z,29.46
2023-08-12T09:56:03.793Z,29.70
2023-08-12T10:01:19.276Z,27.59
2023-08-12T10:06:44.202Z,27.84
2023-08-12T10:11:48.969Z,30.02
2023-08-12T10:16:53.680Z,30.00
2023-08-12T10:22:04.899Z,29.83
2023-08-12T10:27:08.796Z,29.96
2023-08-12T10:32:13.197Z,30.02
2023-08-12T10:37:19.237Z,30.32
2023-08-12T10:42:42.053Z,30.77
2023-08-12T10:47:50.372Z,30.21
2023-08-12T10:53:00.290Z,30.32
2023-08-12T10:58:11.074Z,31.14
2023-08-12T11:03:14.766Z,30.89
2023-08-12T11:08:28.035Z,31.43
2023-08-12T11:13:31.641Z,30.59
2023-08-12T11:18:35.368Z,31.50
2023-08-12T11:23:40.486Z,31.92
2023-08-12T11:28:43.983Z,32.10
2023-08-12T11:33:47.527Z,31.47
2023-08-12T11:38:52.498Z,32.07
2023-08-12T11:43:56.151Z,30.85
2023-08-12T11:48:59.818Z,30.76
2023-08-12T11:54:05.855Z,30.20
2023-08-12T11:59:09.625Z,28.43
2023-08-12T12:04:13.239Z,26.88
2023-08-12T12:09:19.565Z,27.05
2023-08-12T12:14:23.634Z,26.34
2023-08-12T12:19:27.143Z,26.31
2023-08-12T12:24:32.547Z,26.41
2023-08-12T12:29:35.985Z,24.59
2023-08-12T12:34:49.759Z,25.35
2023-08-12T12:40:11.141Z,23.27
2023-08-12T12:45:17.434Z,25.89
2023-08-12T12:50:21.253Z,24.94
2023-08-12T12:55:26.363Z,25.67
2023-08-12T13:00:30.024Z,25.22
2023-08-12T13:05:33.818Z,25.92
2023-08-12T13:10:38.784Z,25.87
2023-08-12T13:15:42.567Z,25.08
2023-08-12T13:20:46.135Z,24.96
2023-08-12T13:25:51.126Z,25.74
2023-08-12T13:30:54.674Z,26.13
2023-08-12T13:35:59.811Z,25.89
2023-08-12T13:41:04.727Z,26.33
2023-08-12T13:46:08.282Z,26.20
2023-08-12T13:51:12.440Z,26.83
2023-08-12T13:56:38.171Z,26.11
2023-08-12T14:01:43.650Z,26.75
2023-08-12T14:06:47.927Z,26.29
2023-08-12T14:11:54.437Z,27.55
2023-08-12T14:23:26.178Z,27.51
2023-08-12T14:28:31.076Z,28.39
2023-08-12T14:33:35.071Z,28.67
2023-08-12T14:38:38.616Z,29.24
2023-08-12T14:43:43.384Z,27.75
2023-08-12T14:48:48.100Z,29.64
2023-08-12T14:53:51.568Z,29.27
2023-08-12T14:58:56.540Z,30.00
2023-08-12T15:04:00.043Z,30.03
2023-08-12T15:09:03.743Z,29.73
2023-08-12T15:14:08.619Z,29.20
2023-08-12T15:19:12.189Z,29.68
2023-08-12T15:24:15.614Z,27.64
2023-08-12T15:29:20.480Z,29.54
2023-08-12T15:34:24.120Z,28.78
2023-08-12T15:39:28.040Z,28.94
2023-08-12T15:44:32.891Z,29.01
2023-08-12T15:49:36.963Z,28.98
2023-08-12T15:54:40.606Z,28.78
2023-08-12T15:59:46.872Z,28.70
2023-08-12T16:04:50.324Z,28.47
2023-08-12T16:09:54.028Z,28.19
2023-08-12T16:14:59.090Z,27.88
2023-08-12T16:20:02.529Z,27.59
2023-08-12T16:25:06.691Z,27.27
2023-08-12T16:30:12.570Z,25.14
2023-08-12T16:35:16.476Z,26.84
2023-08-12T16:40:20.520Z,26.21
2023-08-12T16:45:25.371Z,26.45
2023-08-12T16:50:29.263Z,25.98
2023-08-12T16:55:32.824Z,25.85
2023-08-12T17:00:37.582Z,25.80
2023-08-12T17:05:41.385Z,26.04
2023-08-12T17:10:44.944Z,25.99
2023-08-12T17:15:49.807Z,26.07
2023-08-12T17:20:53.749Z,25.96
2023-08-12T17:25:58.075Z,26.04
2023-08-12T17:31:02.964Z,26.46
2023-08-12T17:36:07.089Z,26.25
2023-08-12T17:41:12.314Z,26.42
2023-08-12T17:46:54.547Z,26.37
2023-08-12T17:52:02.286Z,25.87
2023-08-12T17:57:05.856Z,25.89
2023-08-12T18:02:11.178Z,26.28
2023-08-12T18:07:22.249Z,26.26
2023-08-12T18:12:25.706Z,26.27
2023-08-12T18:17:30.925Z,26.11
2023-08-12T18:22:36.457Z,26.06
2023-08-12T18:33:47.925Z,25.79
2023-08-12T18:42:30.999Z,26.31
2023-08-12T18:45:56.970Z,25.89
2023-08-12T18:51:48.629Z,24.63
2023-08-12T18:56:58.599Z,25.96
2023-08-12T19:02:05.880Z,25.00
2023-08-12T19:16:06.878Z,24.55
2023-08-12T19:18:19.376Z,24.93
2023-08-12T19:19:49.424Z,25.35
2023-08-12T19:25:31.032Z,25.83
2023-08-12T19:30:47.555Z,25.33
2023-08-12T19:36:03.231Z,23.00
2023-08-12T19:41:09.536Z,24.20
2023-08-12T19:46:15.390Z,22.70
2023-08-12T19:51:30.003Z,25.26
2023-08-12T19:56:37.052Z,24.29
2023-08-12T20:01:40.526Z,24.83
2023-08-12T20:06:43.949Z,25.08
2023-08-12T20:11:49.211Z,25.08
2023-08-12T20:16:52.871Z,24.94
2023-08-12T20:21:56.366Z,24.87
2023-08-12T20:27:01.185Z,24.68
2023-08-12T20:32:31.166Z,24.71
2023-08-12T20:37:35.656Z,24.54
2023-08-12T20:42:40.473Z,24.62
2023-08-12T20:47:44.305Z,24.84
2023-08-12T20:52:47.826Z,23.51
2023-08-12T20:57:52.807Z,24.83
2023-08-12T21:02:56.336Z,24.13
2023-08-12T21:08:00.106Z,24.21
2023-08-12T21:13:05.271Z,23.62
2023-08-12T21:18:08.788Z,24.38
2023-08-12T21:23:12.456Z,24.66
2023-08-12T21:28:17.384Z,24.68
2023-08-12T21:33:21.021Z,23.91
2023-08-12T21:38:24.874Z,24.25
2023-08-12T21:43:29.800Z,24.58
2023-08-12T21:48:33.229Z,24.20
2023-08-12T21:53:36.791Z,24.47
2023-08-12T21:58:41.653Z,24.47
2023-08-12T22:03:45.160Z,23.90
2023-08-12T22:08:48.974Z,24.34
2023-08-12T22:13:53.888Z,24.32
2023-08-12T22:18:57.610Z,24.15
2023-08-12T22:24:01.141Z,21.73
2023-08-12T22:29:06.066Z,23.84
2023-08-12T22:34:11.221Z,24.06
2023-08-12T22:39:14.796Z,23.59
2023-08-12T22:44:19.707Z,23.78
2023-08-12T22:49:23.211Z,23.95
2023-08-12T22:54:26.797Z,23.73
2023-08-12T22:59:31.611Z,23.90
2023-08-12T23:04:35.113Z,23.83
2023-08-12T23:09:38.821Z,23.14
2023-08-12T23:14:43.707Z,23.78
2023-08-12T23:19:47.294Z,23.64
2023-08-12T23:24:50.761Z,23.52
2023-08-12T23:29:55.588Z,23.25
2023-08-12T23:34:59.142Z,23.18
2023-08-12T23:40:03.200Z,23.38
2023-08-12T23:45:08.930Z,23.40
2023-08-12T23:50:13.498Z,23.31
2023-08-12T23:55:17.029Z,22.98
